sensor_id;sensor_type;location;lat;lon;timestamp;temperature;humidity
18384;DHT22;9318;48.644;9.456;2023-07-20T00:02:20;19.70;93.90
18384;DHT22;9318;48.644;9.456;2023-07-20T00:04:47;19.60;94.20
18384;DHT22;9318;48.644;9.456;2023-07-20T00:07:13;19.60;94.30
18384;DHT22;9318;48.644;9.456;2023-07-20T00:09:40;19.50;94.40
18384;DHT22;9318;48.644;9.456;2023-07-20T00:12:08;19.50;94.80
18384;DHT22;9318;48.644;9.456;2023-07-20T00:14:36;19.40;94.80
18384;DHT22;9318;48.644;9.456;2023-07-20T00:17:02;19.30;94.90
18384;DHT22;9318;48.644;9.456;2023-07-20T00:19:29;19.20;95.10
18384;DHT22;9318;48.644;9.456;2023-07-20T00:21:57;19.20;95.30
18384;DHT22;9318;48.644;9.456;2023-07-20T00:24:24;19.10;95.60
18384;DHT22;9318;48.644;9.456;2023-07-20T00:26:51;19.10;95.70
18384;DHT22;9318;48.644;9.456;2023-07-20T00:29:18;19.00;95.40
18384;DHT22;9318;48.644;9.456;2023-07-20T00:31:46;18.90;95.50
18384;DHT22;9318;48.644;9.456;2023-07-20T00:34:13;18.90;95.30
18384;DHT22;9318;48.644;9.456;2023-07-20T00:36:39;18.80;95.10
18384;DHT22;9318;48.644;9.456;2023-07-20T00:39:06;18.70;94.90
18384;DHT22;9318;48.644;9.456;2023-07-20T00:41:33;18.60;95.10
18384;DHT22;9318;48.644;9.456;2023-07-20T00:44:01;18.60;94.80
18384;DHT22;9318;48.644;9.456;2023-07-20T00:46:27;18.50;95.00
18384;DHT22;9318;48.644;9.456;2023-07-20T00:48:56;18.50;95.00
18384;DHT22;9318;48.644;9.456;2023-07-20T00:51:23;18.50;95.20
18384;DHT22;9318;48.644;9.456;2023-07-20T00:53:51;18.50;95.10
18384;DHT22;9318;48.644;9.456;2023-07-20T00:56:18;18.50;95.30
18384;DHT22;9318;48.644;9.456;2023-07-20T00:58:45;18.50;95.30
18384;DHT22;9318;48.644;9.456;2023-07-20T01:01:12;18.50;95.50
18384;DHT22;9318;48.644;9.456;2023-07-20T01:03:39;18.40;95.40
18384;DHT22;9318;48.644;9.456;2023-07-20T01:06:14;18.40;95.50
18384;DHT22;9318;48.644;9.456;2023-07-20T01:08:47;18.40;95.80
18384;DHT22;9318;48.644;9.456;2023-07-20T01:11:23;18.40;96.20
18384;DHT22;9318;48.644;9.456;2023-07-20T01:13:55;18.30;96.30
18384;DHT22;9318;48.644;9.456;2023-07-20T01:16:21;18.30;96.50
18384;DHT22;9318;48.644;9.456;2023-07-20T01:18:48;18.20;96.70
18384;DHT22;9318;48.644;9.456;2023-07-20T01:21:21;18.20;96.70
18384;DHT22;9318;48.644;9.456;2023-07-20T01:24:05;18.20;96.70
18384;DHT22;9318;48.644;9.456;2023-07-20T01:26:54;18.10;96.90
18384;DHT22;9318;48.644;9.456;2023-07-20T01:29:41;18.10;97.30
18384;DHT22;9318;48.644;9.456;2023-07-20T01:32:10;18.10;96.90
18384;DHT22;9318;48.644;9.456;2023-07-20T01:34:38;18.00;97.20
18384;DHT22;9318;48.644;9.456;2023-07-20T01:37:05;17.90;97.10
18384;DHT22;9318;48.644;9.456;2023-07-20T01:39:33;17.90;96.90
18384;DHT22;9318;48.644;9.456;2023-07-20T01:42:00;17.80;97.40
18384;DHT22;9318;48.644;9.456;2023-07-20T01:44:27;17.80;97.40
18384;DHT22;9318;48.644;9.456;2023-07-20T01:46:54;17.80;97.70
18384;DHT22;9318;48.644;9.456;2023-07-20T01:49:22;17.80;97.70
18384;DHT22;9318;48.644;9.456;2023-07-20T01:51:49;17.70;97.70
18384;DHT22;9318;48.644;9.456;2023-07-20T01:54:16;17.60;97.80
18384;DHT22;9318;48.644;9.456;2023-07-20T01:56:43;17.60;97.70
18384;DHT22;9318;48.644;9.456;2023-07-20T01:59:10;17.60;98.30
18384;DHT22;9318;48.644;9.456;2023-07-20T02:01:36;17.50;98.10
18384;DHT22;9318;48.644;9.456;2023-07-20T02:04:03;17.50;98.20
18384;DHT22;9318;48.644;9.456;2023-07-20T02:06:31;17.50;98.20
18384;DHT22;9318;48.644;9.456;2023-07-20T02:08:58;17.40;98.40
18384;DHT22;9318;48.644;9.456;2023-07-20T02:11:25;17.40;98.80
18384;DHT22;9318;48.644;9.456;2023-07-20T02:13:52;17.40;98.60
18384;DHT22;9318;48.644;9.456;2023-07-20T02:16:18;17.40;98.90
18384;DHT22;9318;48.644;9.456;2023-07-20T02:18:45;17.30;98.70
18384;DHT22;9318;48.644;9.456;2023-07-20T02:21:12;17.30;99.20
18384;DHT22;9318;48.644;9.456;2023-07-20T02:23:40;17.20;99.30
18384;DHT22;9318;48.644;9.456;2023-07-20T02:26:06;17.20;99.90
18384;DHT22;9318;48.644;9.456;2023-07-20T02:28:33;17.20;99.90
18384;DHT22;9318;48.644;9.456;2023-07-20T02:31:00;17.20;99.90
18384;DHT22;9318;48.644;9.456;2023-07-20T02:33:27;17.10;99.90
18384;DHT22;9318;48.644;9.456;2023-07-20T02:35:53;17.10;99.90
18384;DHT22;9318;48.644;9.456;2023-07-20T02:38:20;17.00;99.90
18384;DHT22;9318;48.644;9.456;2023-07-20T02:40:48;17.00;99.90
18384;DHT22;9318;48.644;9.456;2023-07-20T02:43:15;16.90;99.90
18384;DHT22;9318;48.644;9.456;2023-07-20T02:45:42;16.90;99.90
18384;DHT22;9318;48.644;9.456;2023-07-20T02:48:09;16.80;99.90
18384;DHT22;9318;48.644;9.456;2023-07-20T02:50:36;16.80;99.90
18384;DHT22;9318;48.644;9.456;2023-07-20T02:53:03;16.80;99.90
18384;DHT22;9318;48.644;9.456;2023-07-20T02:55:29;16.80;99.90
18384;DHT22;9318;48.644;9.456;2023-07-20T02:57:58;16.70;99.90
18384;DHT22;9318;48.644;9.456;2023-07-20T03:00:24;16.70;99.90
18384;DHT22;9318;48.644;9.456;2023-07-20T03:02:51;16.60;99.90
18384;DHT22;9318;48.644;9.456;2023-07-20T03:05:21;16.60;99.90
18384;DHT22;9318;48.644;9.456;2023-07-20T03:07:48;16.50;99.90
18384;DHT22;9318;48.644;9.456;2023-07-20T03:10:15;16.40;99.90
18384;DHT22;9318;48.644;9.456;2023-07-20T03:12:42;16.40;99.90
18384;DHT22;9318;48.644;9.456;2023-07-20T03:15:10;16.40;99.90
18384;DHT22;9318;48.644;9.456;2023-07-20T03:17:37;16.30;99.90
18384;DHT22;9318;48.644;9.456;2023-07-20T03:20:05;16.30;99.90
18384;DHT22;9318;48.644;9.456;2023-07-20T03:22:34;16.30;99.90
18384;DHT22;9318;48.644;9.456;2023-07-20T03:25:01;16.30;99.90
18384;DHT22;9318;48.644;9.456;2023-07-20T03:27:28;16.20;99.90
18384;DHT22;9318;48.644;9.456;2023-07-20T03:29:55;16.20;99.90
18384;DHT22;9318;48.644;9.456;2023-07-20T03:32:23;16.10;99.90
18384;DHT22;9318;48.644;9.456;2023-07-20T03:34:50;16.10;99.90
18384;DHT22;9318;48.644;9.456;2023-07-20T03:37:16;16.10;99.90
18384;DHT22;9318;48.644;9.456;2023-07-20T03:39:43;16.10;99.90
18384;DHT22;9318;48.644;9.456;2023-07-20T03:42:10;16.10;99.90
18384;DHT22;9318;48.644;9.456;2023-07-20T03:44:36;16.10;99.90
18384;DHT22;9318;48.644;9.456;2023-07-20T03:47:04;16.00;99.90
18384;DHT22;9318;48.644;9.456;2023-07-20T03:49:33;16.00;99.90
18384;DHT22;9318;48.644;9.456;2023-07-20T03:52:00;16.00;99.90
18384;DHT22;9318;48.644;9.456;2023-07-20T03:54:28;16.00;99.90
18384;DHT22;9318;48.644;9.456;2023-07-20T03:56:55;15.80;99.90
18384;DHT22;9318;48.644;9.456;2023-07-20T03:59:22;15.60;99.90
18384;DHT22;9318;48.644;9.456;2023-07-20T04:01:49;15.60;99.90
18384;DHT22;9318;48.644;9.456;2023-07-20T04:04:16;15.50;99.90
18384;DHT22;9318;48.644;9.456;2023-07-20T04:06:44;15.50;99.90
18384;DHT22;9318;48.644;9.456;2023-07-20T04:09:11;15.50;99.90
18384;DHT22;9318;48.644;9.456;2023-07-20T04:11:39;15.50;99.90
18384;DHT22;9318;48.644;9.456;2023-07-20T04:14:05;15.40;99.90
18384;DHT22;9318;48.644;9.456;2023-07-20T04:16:32;15.50;99.90
18384;DHT22;9318;48.644;9.456;2023-07-20T04:18:59;15.50;99.90
18384;DHT22;9318;48.644;9.456;2023-07-20T04:21:27;15.60;99.90
18384;DHT22;9318;48.644;9.456;2023-07-20T04:23:55;15.60;99.90
18384;DHT22;9318;48.644;9.456;2023-07-20T04:26:21;15.60;99.90
18384;DHT22;9318;48.644;9.456;2023-07-20T04:28:48;15.60;99.90
18384;DHT22;9318;48.644;9.456;2023-07-20T04:31:16;15.70;99.90
18384;DHT22;9318;48.644;9.456;2023-07-20T04:33:43;15.60;99.90
18384;DHT22;9318;48.644;9.456;2023-07-20T04:36:09;15.60;99.90
18384;DHT22;9318;48.644;9.456;2023-07-20T04:38:36;15.60;99.90
18384;DHT22;9318;48.644;9.456;2023-07-20T04:41:04;15.60;99.90
18384;DHT22;9318;48.644;9.456;2023-07-20T04:43:31;15.60;99.90
18384;DHT22;9318;48.644;9.456;2023-07-20T04:45:58;15.70;99.90
18384;DHT22;9318;48.644;9.456;2023-07-20T04:48:24;15.70;99.90
18384;DHT22;9318;48.644;9.456;2023-07-20T04:50:51;15.80;99.90
18384;DHT22;9318;48.644;9.456;2023-07-20T04:53:18;16.00;99.90
18384;DHT22;9318;48.644;9.456;2023-07-20T04:55:49;16.10;99.90
18384;DHT22;9318;48.644;9.456;2023-07-20T04:58:21;16.70;99.90
18384;DHT22;9318;48.644;9.456;2023-07-20T05:00:48;17.30;99.90
18384;DHT22;9318;48.644;9.456;2023-07-20T05:03:15;17.90;99.90
18384;DHT22;9318;48.644;9.456;2023-07-20T05:05:42;18.60;99.90
18384;DHT22;9318;48.644;9.456;2023-07-20T05:08:09;19.00;99.90
18384;DHT22;9318;48.644;9.456;2023-07-20T05:10:35;19.70;99.90
18384;DHT22;9318;48.644;9.456;2023-07-20T05:13:02;20.30;99.90
18384;DHT22;9318;48.644;9.456;2023-07-20T05:15:32;20.70;99.90
18384;DHT22;9318;48.644;9.456;2023-07-20T05:17:59;21.00;99.90
18384;DHT22;9318;48.644;9.456;2023-07-20T05:20:26;21.60;99.90
18384;DHT22;9318;48.644;9.456;2023-07-20T05:22:53;22.00;99.90
18384;DHT22;9318;48.644;9.456;2023-07-20T05:25:20;22.30;99.90
18384;DHT22;9318;48.644;9.456;2023-07-20T05:27:48;22.70;99.90
18384;DHT22;9318;48.644;9.456;2023-07-20T05:30:16;23.00;99.90
18384;DHT22;9318;48.644;9.456;2023-07-20T05:32:44;23.30;99.90
18384;DHT22;9318;48.644;9.456;2023-07-20T05:35:13;23.80;99.90
18384;DHT22;9318;48.644;9.456;2023-07-20T05:37:41;24.30;99.90
18384;DHT22;9318;48.644;9.456;2023-07-20T05:40:08;24.70;99.90
18384;DHT22;9318;48.644;9.456;2023-07-20T05:42:37;25.10;99.90
18384;DHT22;9318;48.644;9.456;2023-07-20T05:45:05;25.50;99.90
18384;DHT22;9318;48.644;9.456;2023-07-20T05:47:32;26.00;99.90
18384;DHT22;9318;48.644;9.456;2023-07-20T05:50:00;26.50;98.30
18384;DHT22;9318;48.644;9.456;2023-07-20T05:52:26;26.80;95.60
18384;DHT22;9318;48.644;9.456;2023-07-20T05:54:53;27.00;93.00
18384;DHT22;9318;48.644;9.456;2023-07-20T05:57:20;27.40;94.00
18384;DHT22;9318;48.644;9.456;2023-07-20T05:59:47;27.40;92.10
18384;DHT22;9318;48.644;9.456;2023-07-20T06:02:14;26.90;91.90
18384;DHT22;9318;48.644;9.456;2023-07-20T06:04:40;26.30;92.00
18384;DHT22;9318;48.644;9.456;2023-07-20T06:07:08;25.80;94.20
18384;DHT22;9318;48.644;9.456;2023-07-20T06:09:35;25.40;94.60
18384;DHT22;9318;48.644;9.456;2023-07-20T06:12:02;25.30;95.40
18384;DHT22;9318;48.644;9.456;2023-07-20T06:14:29;25.60;92.70
18384;DHT22;9318;48.644;9.456;2023-07-20T06:16:55;25.60;91.90
18384;DHT22;9318;48.644;9.456;2023-07-20T06:19:22;25.40;92.90
18384;DHT22;9318;48.644;9.456;2023-07-20T06:21:49;25.00;95.40
18384;DHT22;9318;48.644;9.456;2023-07-20T06:24:17;24.70;95.40
18384;DHT22;9318;48.644;9.456;2023-07-20T06:26:44;24.30;94.90
18384;DHT22;9318;48.644;9.456;2023-07-20T06:29:11;24.00;95.80
18384;DHT22;9318;48.644;9.456;2023-07-20T06:31:38;23.70;95.80
18384;DHT22;9318;48.644;9.456;2023-07-20T06:34:04;23.50;97.00
18384;DHT22;9318;48.644;9.456;2023-07-20T06:36:31;23.50;96.80
18384;DHT22;9318;48.644;9.456;2023-07-20T06:38:58;23.60;97.40
18384;DHT22;9318;48.644;9.456;2023-07-20T06:41:26;24.40;96.40
18384;DHT22;9318;48.644;9.456;2023-07-20T06:43:53;25.10;94.80
18384;DHT22;9318;48.644;9.456;2023-07-20T06:46:23;25.80;94.20
18384;DHT22;9318;48.644;9.456;2023-07-20T06:48:50;26.10;92.50
18384;DHT22;9318;48.644;9.456;2023-07-20T06:51:17;26.10;92.30
18384;DHT22;9318;48.644;9.456;2023-07-20T06:53:44;26.40;93.10
18384;DHT22;9318;48.644;9.456;2023-07-20T06:56:11;26.90;91.80
18384;DHT22;9318;48.644;9.456;2023-07-20T06:58:39;27.80;91.30
18384;DHT22;9318;48.644;9.456;2023-07-20T07:01:07;29.00;87.50
18384;DHT22;9318;48.644;9.456;2023-07-20T07:03:33;29.40;87.40
18384;DHT22;9318;48.644;9.456;2023-07-20T07:06:00;29.60;84.50
18384;DHT22;9318;48.644;9.456;2023-07-20T07:08:27;30.30;80.00
18384;DHT22;9318;48.644;9.456;2023-07-20T07:10:54;31.00;79.50
18384;DHT22;9318;48.644;9.456;2023-07-20T07:13:20;31.00;75.10
18384;DHT22;9318;48.644;9.456;2023-07-20T07:15:48;31.00;73.90
18384;DHT22;9318;48.644;9.456;2023-07-20T07:18:15;31.60;76.40
18384;DHT22;9318;48.644;9.456;2023-07-20T07:20:50;32.30;70.80
18384;DHT22;9318;48.644;9.456;2023-07-20T07:23:17;33.10;71.40
18384;DHT22;9318;48.644;9.456;2023-07-20T07:25:44;33.20;69.20
18384;DHT22;9318;48.644;9.456;2023-07-20T07:28:10;33.50;69.60
18384;DHT22;9318;48.644;9.456;2023-07-20T07:30:37;34.00;65.90
18384;DHT22;9318;48.644;9.456;2023-07-20T07:33:05;34.20;66.10
18384;DHT22;9318;48.644;9.456;2023-07-20T07:35:32;33.90;64.30
18384;DHT22;9318;48.644;9.456;2023-07-20T07:37:59;32.30;65.90
18384;DHT22;9318;48.644;9.456;2023-07-20T07:40:25;31.00;70.20
18384;DHT22;9318;48.644;9.456;2023-07-20T07:42:52;30.20;69.50
18384;DHT22;9318;48.644;9.456;2023-07-20T07:45:19;29.40;71.90
18384;DHT22;9318;48.644;9.456;2023-07-20T07:47:46;28.40;74.60
18384;DHT22;9318;48.644;9.456;2023-07-20T07:50:14;27.50;78.20
18384;DHT22;9318;48.644;9.456;2023-07-20T07:52:40;26.20;79.20
18384;DHT22;9318;48.644;9.456;2023-07-20T07:55:07;25.80;82.80
18384;DHT22;9318;48.644;9.456;2023-07-20T07:57:34;25.30;82.90
18384;DHT22;9318;48.644;9.456;2023-07-20T08:00:01;25.00;86.10
18384;DHT22;9318;48.644;9.456;2023-07-20T08:02:29;24.70;86.40
18384;DHT22;9318;48.644;9.456;2023-07-20T08:04:56;25.20;88.30
18384;DHT22;9318;48.644;9.456;2023-07-20T08:07:24;26.10;87.60
18384;DHT22;9318;48.644;9.456;2023-07-20T08:09:50;26.30;85.80
18384;DHT22;9318;48.644;9.456;2023-07-20T08:12:17;26.00;87.10
18384;DHT22;9318;48.644;9.456;2023-07-20T08:14:45;25.40;86.70
18384;DHT22;9318;48.644;9.456;2023-07-20T08:17:12;24.50;88.20
18384;DHT22;9318;48.644;9.456;2023-07-20T08:19:39;24.10;91.60
18384;DHT22;9318;48.644;9.456;2023-07-20T08:22:07;24.70;91.30
18384;DHT22;9318;48.644;9.456;2023-07-20T08:24:38;25.20;90.00
18384;DHT22;9318;48.644;9.456;2023-07-20T08:27:05;25.20;89.30
18384;DHT22;9318;48.644;9.456;2023-07-20T08:29:32;25.10;87.90
18384;DHT22;9318;48.644;9.456;2023-07-20T08:31:59;25.00;88.10
18384;DHT22;9318;48.644;9.456;2023-07-20T08:34:26;24.90;89.50
18384;DHT22;9318;48.644;9.456;2023-07-20T08:36:52;24.70;88.60
18384;DHT22;9318;48.644;9.456;2023-07-20T08:39:19;25.70;88.20
18384;DHT22;9318;48.644;9.456;2023-07-20T08:41:49;27.70;82.60
18384;DHT22;9318;48.644;9.456;2023-07-20T08:44:17;29.90;79.30
18384;DHT22;9318;48.644;9.456;2023-07-20T08:46:44;31.50;71.90
18384;DHT22;9318;48.644;9.456;2023-07-20T08:49:12;31.70;68.90
18384;DHT22;9318;48.644;9.456;2023-07-20T08:51:39;31.20;69.20
18384;DHT22;9318;48.644;9.456;2023-07-20T08:54:08;30.40;73.20
18384;DHT22;9318;48.644;9.456;2023-07-20T08:56:36;30.10;69.70
18384;DHT22;9318;48.644;9.456;2023-07-20T08:59:05;29.20;72.60
18384;DHT22;9318;48.644;9.456;2023-07-20T09:01:32;28.10;75.20
18384;DHT22;9318;48.644;9.456;2023-07-20T09:04:00;27.10;77.00
18384;DHT22;9318;48.644;9.456;2023-07-20T09:06:27;26.40;80.20
18384;DHT22;9318;48.644;9.456;2023-07-20T09:08:54;26.00;82.20
18384;DHT22;9318;48.644;9.456;2023-07-20T09:11:22;25.50;82.90
18384;DHT22;9318;48.644;9.456;2023-07-20T09:14:02;24.90;85.70
18384;DHT22;9318;48.644;9.456;2023-07-20T09:16:30;25.40;87.60
18384;DHT22;9318;48.644;9.456;2023-07-20T09:18:58;26.80;82.20
18384;DHT22;9318;48.644;9.456;2023-07-20T09:21:29;28.30;80.20
18384;DHT22;9318;48.644;9.456;2023-07-20T09:23:56;29.60;72.20
18384;DHT22;9318;48.644;9.456;2023-07-20T09:26:23;30.70;72.80
18384;DHT22;9318;48.644;9.456;2023-07-20T09:28:52;31.30;66.20
18384;DHT22;9318;48.644;9.456;2023-07-20T09:31:21;31.40;64.70
18384;DHT22;9318;48.644;9.456;2023-07-20T09:33:51;30.90;65.40
18384;DHT22;9318;48.644;9.456;2023-07-20T09:36:19;30.70;68.10
18384;DHT22;9318;48.644;9.456;2023-07-20T09:38:46;30.90;69.70
18384;DHT22;9318;48.644;9.456;2023-07-20T09:41:13;30.80;69.50
18384;DHT22;9318;48.644;9.456;2023-07-20T09:43:41;30.60;69.70
18384;DHT22;9318;48.644;9.456;2023-07-20T09:46:08;30.10;70.30
18384;DHT22;9318;48.644;9.456;2023-07-20T09:48:35;29.80;73.50
18384;DHT22;9318;48.644;9.456;2023-07-20T09:51:04;29.80;72.50
18384;DHT22;9318;48.644;9.456;2023-07-20T09:53:33;29.80;73.00
18384;DHT22;9318;48.644;9.456;2023-07-20T09:56:00;29.30;69.10
18384;DHT22;9318;48.644;9.456;2023-07-20T09:58:27;28.90;71.30
18384;DHT22;9318;48.644;9.456;2023-07-20T10:00:57;28.40;72.50
18384;DHT22;9318;48.644;9.456;2023-07-20T10:03:28;28.00;76.20
18384;DHT22;9318;48.644;9.456;2023-07-20T10:05:57;27.80;75.60
18384;DHT22;9318;48.644;9.456;2023-07-20T10:08:28;27.70;78.60
18384;DHT22;9318;48.644;9.456;2023-07-20T10:10:57;27.80;76.70
18384;DHT22;9318;48.644;9.456;2023-07-20T10:13:26;28.00;76.60
18384;DHT22;9318;48.644;9.456;2023-07-20T10:15:54;27.90;74.10
18384;DHT22;9318;48.644;9.456;2023-07-20T10:18:27;27.60;74.00
18384;DHT22;9318;48.644;9.456;2023-07-20T10:20:56;27.50;75.50
18384;DHT22;9318;48.644;9.456;2023-07-20T10:23:29;27.60;75.40
18384;DHT22;9318;48.644;9.456;2023-07-20T10:25:56;27.70;73.80
18384;DHT22;9318;48.644;9.456;2023-07-20T10:28:23;27.70;75.90
18384;DHT22;9318;48.644;9.456;2023-07-20T10:30:50;27.80;75.60
18384;DHT22;9318;48.644;9.456;2023-07-20T10:33:17;27.80;74.30
18384;DHT22;9318;48.644;9.456;2023-07-20T10:35:51;27.60;72.30
18384;DHT22;9318;48.644;9.456;2023-07-20T10:38:18;27.40;74.10
18384;DHT22;9318;48.644;9.456;2023-07-20T10:40:55;27.40;74.60
18384;DHT22;9318;48.644;9.456;2023-07-20T10:43:22;27.30;73.60
18384;DHT22;9318;48.644;9.456;2023-07-20T10:45:49;27.20;72.30
18384;DHT22;9318;48.644;9.456;2023-07-20T10:48:18;27.30;77.10
18384;DHT22;9318;48.644;9.456;2023-07-20T10:50:46;27.40;72.10
18384;DHT22;9318;48.644;9.456;2023-07-20T10:53:14;27.40;74.40
18384;DHT22;9318;48.644;9.456;2023-07-20T10:55:42;27.50;71.60
18384;DHT22;9318;48.644;9.456;2023-07-20T10:58:12;27.30;76.10
18384;DHT22;9318;48.644;9.456;2023-07-20T11:00:56;27.50;75.90
18384;DHT22;9318;48.644;9.456;2023-07-20T11:03:29;27.70;70.40
18384;DHT22;9318;48.644;9.456;2023-07-20T11:05:57;27.80;69.70
18384;DHT22;9318;48.644;9.456;2023-07-20T11:08:40;27.80;69.60
18384;DHT22;9318;48.644;9.456;2023-07-20T11:11:24;27.80;72.10
18384;DHT22;9318;48.644;9.456;2023-07-20T11:13:56;27.80;69.40
18384;DHT22;9318;48.644;9.456;2023-07-20T11:16:38;27.80;71.20
18384;DHT22;9318;48.644;9.456;2023-07-20T11:19:17;28.00;71.30
18384;DHT22;9318;48.644;9.456;2023-07-20T11:21:45;28.10;68.90
18384;DHT22;9318;48.644;9.456;2023-07-20T11:24:12;28.10;65.50
18384;DHT22;9318;48.644;9.456;2023-07-20T11:26:46;28.10;72.30
18384;DHT22;9318;48.644;9.456;2023-07-20T11:29:16;28.60;73.90
18384;DHT22;9318;48.644;9.456;2023-07-20T11:31:44;29.00;73.70
18384;DHT22;9318;48.644;9.456;2023-07-20T11:34:12;29.30;69.20
18384;DHT22;9318;48.644;9.456;2023-07-20T11:36:40;29.10;65.00
18384;DHT22;9318;48.644;9.456;2023-07-20T11:39:08;29.00;67.80
18384;DHT22;9318;48.644;9.456;2023-07-20T11:41:35;29.00;68.70
18384;DHT22;9318;48.644;9.456;2023-07-20T11:44:04;29.10;66.00
18384;DHT22;9318;48.644;9.456;2023-07-20T11:46:33;29.00;70.90
18384;DHT22;9318;48.644;9.456;2023-07-20T11:49:01;29.00;67.60
18384;DHT22;9318;48.644;9.456;2023-07-20T11:51:28;29.10;62.90
18384;DHT22;9318;48.644;9.456;2023-07-20T11:53:56;28.90;66.90
18384;DHT22;9318;48.644;9.456;2023-07-20T11:56:24;29.00;68.20
18384;DHT22;9318;48.644;9.456;2023-07-20T11:58:55;29.30;67.20
18384;DHT22;9318;48.644;9.456;2023-07-20T12:01:23;29.60;64.90
18384;DHT22;9318;48.644;9.456;2023-07-20T12:03:51;29.50;66.40
18384;DHT22;9318;48.644;9.456;2023-07-20T12:06:18;29.30;66.00
18384;DHT22;9318;48.644;9.456;2023-07-20T12:08:45;29.10;66.20
18384;DHT22;9318;48.644;9.456;2023-07-20T12:11:11;29.20;68.10
18384;DHT22;9318;48.644;9.456;2023-07-20T12:13:40;29.30;66.50
18384;DHT22;9318;48.644;9.456;2023-07-20T12:16:11;29.10;65.00
18384;DHT22;9318;48.644;9.456;2023-07-20T12:18:40;28.90;64.00
18384;DHT22;9318;48.644;9.456;2023-07-20T12:21:08;28.80;63.00
18384;DHT22;9318;48.644;9.456;2023-07-20T12:23:36;28.60;69.50
18384;DHT22;9318;48.644;9.456;2023-07-20T12:26:06;28.50;62.60
18384;DHT22;9318;48.644;9.456;2023-07-20T12:28:33;28.50;64.50
18384;DHT22;9318;48.644;9.456;2023-07-20T12:31:00;28.60;62.60
18384;DHT22;9318;48.644;9.456;2023-07-20T12:33:26;28.70;64.30
18384;DHT22;9318;48.644;9.456;2023-07-20T12:35:53;28.80;67.40
18384;DHT22;9318;48.644;9.456;2023-07-20T12:38:23;28.80;65.20
18384;DHT22;9318;48.644;9.456;2023-07-20T12:40:50;28.80;67.20
18384;DHT22;9318;48.644;9.456;2023-07-20T12:43:16;28.80;62.50
18384;DHT22;9318;48.644;9.456;2023-07-20T12:45:43;28.70;63.80
18384;DHT22;9318;48.644;9.456;2023-07-20T12:48:10;28.60;62.30
18384;DHT22;9318;48.644;9.456;2023-07-20T12:50:36;28.20;62.40
18384;DHT22;9318;48.644;9.456;2023-07-20T12:53:03;28.00;70.70
18384;DHT22;9318;48.644;9.456;2023-07-20T12:55:32;27.80;64.10
18384;DHT22;9318;48.644;9.456;2023-07-20T12:57:59;27.60;63.00
18384;DHT22;9318;48.644;9.456;2023-07-20T13:00:25;27.40;64.50
18384;DHT22;9318;48.644;9.456;2023-07-20T13:02:52;27.50;64.00
18384;DHT22;9318;48.644;9.456;2023-07-20T13:05:19;27.50;63.70
18384;DHT22;9318;48.644;9.456;2023-07-20T13:07:46;27.60;66.20
18384;DHT22;9318;48.644;9.456;2023-07-20T13:10:13;27.80;66.20
18384;DHT22;9318;48.644;9.456;2023-07-20T13:12:41;28.10;65.00
18384;DHT22;9318;48.644;9.456;2023-07-20T13:15:09;28.20;64.30
18384;DHT22;9318;48.644;9.456;2023-07-20T13:17:38;28.30;64.60
18384;DHT22;9318;48.644;9.456;2023-07-20T13:20:06;27.90;61.50
18384;DHT22;9318;48.644;9.456;2023-07-20T13:22:35;27.60;65.60
18384;DHT22;9318;48.644;9.456;2023-07-20T13:25:03;27.80;66.80
18384;DHT22;9318;48.644;9.456;2023-07-20T13:27:29;28.20;67.80
18384;DHT22;9318;48.644;9.456;2023-07-20T13:29:58;28.10;61.30
18384;DHT22;9318;48.644;9.456;2023-07-20T13:32:26;28.10;59.60
18384;DHT22;9318;48.644;9.456;2023-07-20T13:34:53;28.10;61.10
18384;DHT22;9318;48.644;9.456;2023-07-20T13:37:20;28.20;65.50
18384;DHT22;9318;48.644;9.456;2023-07-20T13:39:47;28.50;65.70
18384;DHT22;9318;48.644;9.456;2023-07-20T13:42:14;28.60;62.00
18384;DHT22;9318;48.644;9.456;2023-07-20T13:44:40;28.30;59.90
18384;DHT22;9318;48.644;9.456;2023-07-20T13:47:09;28.00;62.90
18384;DHT22;9318;48.644;9.456;2023-07-20T13:49:35;27.80;64.40
18384;DHT22;9318;48.644;9.456;2023-07-20T13:52:02;27.50;64.20
18384;DHT22;9318;48.644;9.456;2023-07-20T13:54:29;27.40;63.30
18384;DHT22;9318;48.644;9.456;2023-07-20T13:56:55;27.20;62.80
18384;DHT22;9318;48.644;9.456;2023-07-20T13:59:23;27.10;66.20
18384;DHT22;9318;48.644;9.456;2023-07-20T14:01:50;27.20;66.70
18384;DHT22;9318;48.644;9.456;2023-07-20T14:04:18;27.40;63.40
18384;DHT22;9318;48.644;9.456;2023-07-20T14:06:45;27.30;63.00
18384;DHT22;9318;48.644;9.456;2023-07-20T14:09:12;27.30;64.90
18384;DHT22;9318;48.644;9.456;2023-07-20T14:11:39;27.30;65.40
18384;DHT22;9318;48.644;9.456;2023-07-20T14:14:06;27.30;66.00
18384;DHT22;9318;48.644;9.456;2023-07-20T14:16:33;27.40;63.40
18384;DHT22;9318;48.644;9.456;2023-07-20T14:19:00;27.30;64.30
18384;DHT22;9318;48.644;9.456;2023-07-20T14:21:28;27.40;65.40
18384;DHT22;9318;48.644;9.456;2023-07-20T14:23:56;27.50;62.90
18384;DHT22;9318;48.644;9.456;2023-07-20T14:26:23;27.40;63.00
18384;DHT22;9318;48.644;9.456;2023-07-20T14:28:50;27.40;64.90
18384;DHT22;9318;48.644;9.456;2023-07-20T14:31:17;27.30;62.60
18384;DHT22;9318;48.644;9.456;2023-07-20T14:33:45;27.20;63.10
18384;DHT22;9318;48.644;9.456;2023-07-20T14:36:12;27.20;61.00
18384;DHT22;9318;48.644;9.456;2023-07-20T14:38:40;27.00;60.90
18384;DHT22;9318;48.644;9.456;2023-07-20T14:41:07;27.00;62.00
18384;DHT22;9318;48.644;9.456;2023-07-20T14:43:33;26.80;61.90
18384;DHT22;9318;48.644;9.456;2023-07-20T14:46:00;26.80;66.00
18384;DHT22;9318;48.644;9.456;2023-07-20T14:48:27;26.80;64.40
18384;DHT22;9318;48.644;9.456;2023-07-20T14:50:53;26.80;61.10
18384;DHT22;9318;48.644;9.456;2023-07-20T14:53:20;26.80;63.50
18384;DHT22;9318;48.644;9.456;2023-07-20T14:55:48;26.80;63.60
18384;DHT22;9318;48.644;9.456;2023-07-20T14:58:15;26.60;63.70
18384;DHT22;9318;48.644;9.456;2023-07-20T15:00:42;26.40;62.10
18384;DHT22;9318;48.644;9.456;2023-07-20T15:03:08;26.30;61.60
18384;DHT22;9318;48.644;9.456;2023-07-20T15:05:35;26.30;62.30
18384;DHT22;9318;48.644;9.456;2023-07-20T15:08:04;26.20;63.20
18384;DHT22;9318;48.644;9.456;2023-07-20T15:10:31;26.20;63.00
18384;DHT22;9318;48.644;9.456;2023-07-20T15:12:59;26.20;65.20
18384;DHT22;9318;48.644;9.456;2023-07-20T15:15:26;26.30;67.80
18384;DHT22;9318;48.644;9.456;2023-07-20T15:17:53;26.30;65.20
18384;DHT22;9318;48.644;9.456;2023-07-20T15:20:20;26.40;65.10
18384;DHT22;9318;48.644;9.456;2023-07-20T15:22:47;26.40;64.30
18384;DHT22;9318;48.644;9.456;2023-07-20T15:25:14;26.40;63.00
18384;DHT22;9318;48.644;9.456;2023-07-20T15:27:40;26.40;63.10
18384;DHT22;9318;48.644;9.456;2023-07-20T15:30:11;26.40;66.40
18384;DHT22;9318;48.644;9.456;2023-07-20T15:32:38;26.30;64.60
18384;DHT22;9318;48.644;9.456;2023-07-20T15:35:06;26.30;65.70
18384;DHT22;9318;48.644;9.456;2023-07-20T15:37:33;26.20;61.80
18384;DHT22;9318;48.644;9.456;2023-07-20T15:40:00;26.10;64.70
18384;DHT22;9318;48.644;9.456;2023-07-20T15:42:29;26.00;62.00
18384;DHT22;9318;48.644;9.456;2023-07-20T15:44:56;25.90;62.20
18384;DHT22;9318;48.644;9.456;2023-07-20T15:47:24;26.00;62.80
18384;DHT22;9318;48.644;9.456;2023-07-20T15:49:51;26.10;63.50